sensor_id;sensor_type;location;lat;lon;timestamp;P1;durP1;ratioP1;P2;durP2;ratioP2
65855;SDS011;52631;42.208;24.656;2023-09-19T00:01:15;9.02;;;4.15;;
65855;SDS011;52631;42.208;24.656;2023-09-19T00:03:40;5.93;;;4.35;;
65855;SDS011;52631;42.208;24.656;2023-09-19T00:06:07;9.35;;;4.15;;
65855;SDS011;52631;42.208;24.656;2023-09-19T00:08:33;10.75;;;4.55;;
65855;SDS011;52631;42.208;24.656;2023-09-19T00:10:59;6.93;;;4.60;;
65855;SDS011;52631;42.208;24.656;2023-09-19T00:13:29;7.70;;;4.25;;
65855;SDS011;52631;42.208;24.656;2023-09-19T00:15:56;10.45;;;4.80;;
65855;SDS011;52631;42.208;24.656;2023-09-19T00:18:24;7.82;;;4.35;;
65855;SDS011;52631;42.208;24.656;2023-09-19T00:20:53;9.32;;;4.38;;
65855;SDS011;52631;42.208;24.656;2023-09-19T00:23:22;7.13;;;4.18;;
65855;SDS011;52631;42.208;24.656;2023-09-19T00:25:48;8.07;;;4.95;;
65855;SDS011;52631;42.208;24.656;2023-09-19T00:28:13;7.20;;;4.32;;
65855;SDS011;52631;42.208;24.656;2023-09-19T00:30:42;8.10;;;5.07;;
65855;SDS011;52631;42.208;24.656;2023-09-19T00:33:08;10.05;;;5.20;;
65855;SDS011;52631;42.208;24.656;2023-09-19T00:35:33;9.18;;;5.18;;
65855;SDS011;52631;42.208;24.656;2023-09-19T00:37:58;9.88;;;5.63;;
65855;SDS011;52631;42.208;24.656;2023-09-19T00:40:24;8.25;;;5.60;;
65855;SDS011;52631;42.208;24.656;2023-09-19T00:42:50;9.25;;;5.47;;
65855;SDS011;52631;42.208;24.656;2023-09-19T00:45:16;11.18;;;5.65;;
65855;SDS011;52631;42.208;24.656;2023-09-19T00:47:49;10.55;;;5.90;;
65855;SDS011;52631;42.208;24.656;2023-09-19T00:50:17;12.85;;;6.00;;
65855;SDS011;52631;42.208;24.656;2023-09-19T00:52:44;11.23;;;6.38;;
65855;SDS011;52631;42.208;24.656;2023-09-19T00:55:11;10.52;;;5.93;;
65855;SDS011;52631;42.208;24.656;2023-09-19T00:57:38;9.55;;;5.85;;
65855;SDS011;52631;42.208;24.656;2023-09-19T01:00:05;12.57;;;6.45;;
65855;SDS011;52631;42.208;24.656;2023-09-19T01:02:33;12.05;;;6.13;;
65855;SDS011;52631;42.208;24.656;2023-09-19T01:04:59;11.82;;;6.18;;
65855;SDS011;52631;42.208;24.656;2023-09-19T01:07:26;10.98;;;5.53;;
65855;SDS011;52631;42.208;24.656;2023-09-19T01:09:55;13.93;;;6.53;;
65855;SDS011;52631;42.208;24.656;2023-09-19T01:12:25;10.05;;;5.75;;
65855;SDS011;52631;42.208;24.656;2023-09-19T01:14:59;12.23;;;6.90;;
65855;SDS011;52631;42.208;24.656;2023-09-19T01:17:30;11.75;;;6.30;;
65855;SDS011;52631;42.208;24.656;2023-09-19T01:20:33;12.48;;;6.60;;
65855;SDS011;52631;42.208;24.656;2023-09-19T01:29:17;11.95;;;6.90;;
65855;SDS011;52631;42.208;24.656;2023-09-19T01:31:56;12.80;;;6.47;;
65855;SDS011;52631;42.208;24.656;2023-09-19T01:34:26;12.43;;;6.22;;
65855;SDS011;52631;42.208;24.656;2023-09-19T01:36:51;9.55;;;6.25;;
65855;SDS011;52631;42.208;24.656;2023-09-19T01:39:17;14.25;;;6.63;;
65855;SDS011;52631;42.208;24.656;2023-09-19T01:44:44;13.07;;;6.43;;
65855;SDS011;52631;42.208;24.656;2023-09-19T01:47:26;10.40;;;6.53;;
65855;SDS011;52631;42.208;24.656;2023-09-19T01:52:45;10.27;;;6.35;;
65855;SDS011;52631;42.208;24.656;2023-09-19T01:55:13;13.15;;;6.88;;
65855;SDS011;52631;42.208;24.656;2023-09-19T01:57:48;10.95;;;6.78;;
65855;SDS011;52631;42.208;24.656;2023-09-19T02:00:18;10.50;;;6.35;;
65855;SDS011;52631;42.208;24.656;2023-09-19T02:02:45;11.18;;;6.45;;
65855;SDS011;52631;42.208;24.656;2023-09-19T02:05:12;11.40;;;6.65;;
65855;SDS011;52631;42.208;24.656;2023-09-19T02:07:38;11.05;;;6.03;;
65855;SDS011;52631;42.208;24.656;2023-09-19T02:10:04;10.18;;;5.93;;
65855;SDS011;52631;42.208;24.656;2023-09-19T02:12:31;10.57;;;6.28;;
65855;SDS011;52631;42.208;24.656;2023-09-19T02:14:57;9.15;;;5.95;;
65855;SDS011;52631;42.208;24.656;2023-09-19T02:17:24;9.90;;;6.10;;
65855;SDS011;52631;42.208;24.656;2023-09-19T02:19:55;10.80;;;6.40;;
65855;SDS011;52631;42.208;24.656;2023-09-19T02:22:21;9.60;;;6.28;;
65855;SDS011;52631;42.208;24.656;2023-09-19T02:24:47;10.43;;;5.88;;
65855;SDS011;52631;42.208;24.656;2023-09-19T02:27:13;8.43;;;5.63;;
65855;SDS011;52631;42.208;24.656;2023-09-19T02:29:41;9.07;;;5.90;;
65855;SDS011;52631;42.208;24.656;2023-09-19T02:32:07;9.40;;;5.88;;
65855;SDS011;52631;42.208;24.656;2023-09-19T02:34:32;10.77;;;6.25;;
65855;SDS011;52631;42.208;24.656;2023-09-19T02:37:01;10.43;;;6.03;;
65855;SDS011;52631;42.208;24.656;2023-09-19T02:39:33;9.40;;;5.90;;
65855;SDS011;52631;42.208;24.656;2023-09-19T02:41:59;9.20;;;5.78;;
65855;SDS011;52631;42.208;24.656;2023-09-19T02:44:24;10.90;;;6.43;;
65855;SDS011;52631;42.208;24.656;2023-09-19T02:46:50;9.20;;;5.82;;
65855;SDS011;52631;42.208;24.656;2023-09-19T02:49:16;9.20;;;6.07;;
65855;SDS011;52631;42.208;24.656;2023-09-19T02:51:43;9.73;;;6.55;;
65855;SDS011;52631;42.208;24.656;2023-09-19T02:54:09;10.65;;;5.85;;
65855;SDS011;52631;42.208;24.656;2023-09-19T02:56:34;10.45;;;6.20;;
65855;SDS011;52631;42.208;24.656;2023-09-19T02:59:00;9.88;;;6.10;;
65855;SDS011;52631;42.208;24.656;2023-09-19T03:01:26;11.50;;;5.95;;
65855;SDS011;52631;42.208;24.656;2023-09-19T03:03:53;10.52;;;6.07;;
65855;SDS011;52631;42.208;24.656;2023-09-19T03:06:19;10.70;;;5.85;;
65855;SDS011;52631;42.208;24.656;2023-09-19T03:08:45;10.98;;;6.35;;
65855;SDS011;52631;42.208;24.656;2023-09-19T03:11:11;9.98;;;6.85;;
65855;SDS011;52631;42.208;24.656;2023-09-19T03:13:39;9.43;;;5.97;;
65855;SDS011;52631;42.208;24.656;2023-09-19T03:16:05;9.48;;;6.22;;
65855;SDS011;52631;42.208;24.656;2023-09-19T03:18:31;11.00;;;6.82;;
65855;SDS011;52631;42.208;24.656;2023-09-19T03:20:57;12.65;;;6.25;;
65855;SDS011;52631;42.208;24.656;2023-09-19T03:23:25;11.23;;;6.53;;
65855;SDS011;52631;42.208;24.656;2023-09-19T03:25:51;10.27;;;6.25;;
65855;SDS011;52631;42.208;24.656;2023-09-19T03:28:21;9.80;;;6.03;;
65855;SDS011;52631;42.208;24.656;2023-09-19T03:30:57;11.20;;;6.22;;
65855;SDS011;52631;42.208;24.656;2023-09-19T03:33:26;11.05;;;6.10;;
65855;SDS011;52631;42.208;24.656;2023-09-19T03:35:52;8.93;;;6.20;;
65855;SDS011;52631;42.208;24.656;2023-09-19T03:38:18;9.85;;;5.93;;
65855;SDS011;52631;42.208;24.656;2023-09-19T03:40:44;10.52;;;6.68;;
65855;SDS011;52631;42.208;24.656;2023-09-19T03:43:10;10.88;;;6.28;;
65855;SDS011;52631;42.208;24.656;2023-09-19T03:45:35;10.23;;;5.85;;
65855;SDS011;52631;42.208;24.656;2023-09-19T03:48:00;12.70;;;6.68;;
65855;SDS011;52631;42.208;24.656;2023-09-19T03:50:26;11.77;;;6.30;;
65855;SDS011;52631;42.208;24.656;2023-09-19T03:52:55;11.88;;;7.13;;
65855;SDS011;52631;42.208;24.656;2023-09-19T03:55:22;11.02;;;6.13;;
65855;SDS011;52631;42.208;24.656;2023-09-19T03:57:50;10.60;;;6.40;;
65855;SDS011;52631;42.208;24.656;2023-09-19T04:00:15;11.40;;;6.50;;
65855;SDS011;52631;42.208;24.656;2023-09-19T04:02:43;10.98;;;7.00;;
65855;SDS011;52631;42.208;24.656;2023-09-19T04:05:11;12.48;;;6.88;;
65855;SDS011;52631;42.208;24.656;2023-09-19T04:07:36;10.65;;;6.30;;
65855;SDS011;52631;42.208;24.656;2023-09-19T04:10:02;9.82;;;6.57;;
65855;SDS011;52631;42.208;24.656;2023-09-19T04:12:28;10.75;;;6.75;;
65855;SDS011;52631;42.208;24.656;2023-09-19T04:14:53;14.20;;;6.63;;
65855;SDS011;52631;42.208;24.656;2023-09-19T04:17:19;11.32;;;7.10;;
65855;SDS011;52631;42.208;24.656;2023-09-19T04:19:45;12.02;;;6.88;;
65855;SDS011;52631;42.208;24.656;2023-09-19T04:22:11;12.68;;;6.68;;
65855;SDS011;52631;42.208;24.656;2023-09-19T04:24:37;10.60;;;6.53;;
65855;SDS011;52631;42.208;24.656;2023-09-19T04:27:03;13.32;;;7.25;;
65855;SDS011;52631;42.208;24.656;2023-09-19T04:29:29;11.60;;;7.00;;
65855;SDS011;52631;42.208;24.656;2023-09-19T04:31:55;10.98;;;6.45;;
65855;SDS011;52631;42.208;24.656;2023-09-19T04:34:24;14.65;;;6.70;;
65855;SDS011;52631;42.208;24.656;2023-09-19T04:36:49;12.48;;;6.57;;
65855;SDS011;52631;42.208;24.656;2023-09-19T04:39:15;11.10;;;6.38;;
65855;SDS011;52631;42.208;24.656;2023-09-19T04:41:41;12.43;;;6.93;;
65855;SDS011;52631;42.208;24.656;2023-09-19T04:44:07;17.73;;;9.40;;
65855;SDS011;52631;42.208;24.656;2023-09-19T04:46:33;17.67;;;10.50;;
65855;SDS011;52631;42.208;24.656;2023-09-19T04:48:59;10.93;;;6.75;;
65855;SDS011;52631;42.208;24.656;2023-09-19T04:51:24;11.07;;;6.43;;
65855;SDS011;52631;42.208;24.656;2023-09-19T04:53:51;10.63;;;7.00;;
65855;SDS011;52631;42.208;24.656;2023-09-19T04:56:17;14.40;;;6.97;;
65855;SDS011;52631;42.208;24.656;2023-09-19T04:58:42;11.77;;;6.60;;
65855;SDS011;52631;42.208;24.656;2023-09-19T05:01:08;13.18;;;6.57;;
65855;SDS011;52631;42.208;24.656;2023-09-19T05:03:36;11.05;;;6.68;;
65855;SDS011;52631;42.208;24.656;2023-09-19T05:06:02;15.88;;;7.10;;
65855;SDS011;52631;42.208;24.656;2023-09-19T05:08:28;12.48;;;6.70;;
65855;SDS011;52631;42.208;24.656;2023-09-19T05:10:53;10.57;;;6.65;;
65855;SDS011;52631;42.208;24.656;2023-09-19T05:13:21;10.45;;;6.70;;
65855;SDS011;52631;42.208;24.656;2023-09-19T05:15:48;11.57;;;6.57;;
65855;SDS011;52631;42.208;24.656;2023-09-19T05:18:15;15.15;;;6.85;;
65855;SDS011;52631;42.208;24.656;2023-09-19T05:20:40;9.40;;;6.40;;
65855;SDS011;52631;42.208;24.656;2023-09-19T05:23:06;12.45;;;6.47;;
65855;SDS011;52631;42.208;24.656;2023-09-19T05:28:04;12.07;;;7.15;;
65855;SDS011;52631;42.208;24.656;2023-09-19T05:30:31;13.10;;;7.53;;
65855;SDS011;52631;42.208;24.656;2023-09-19T05:32:57;11.25;;;7.10;;
65855;SDS011;52631;42.208;24.656;2023-09-19T05:35:23;12.18;;;7.43;;
65855;SDS011;52631;42.208;24.656;2023-09-19T05:37:51;14.63;;;8.07;;
65855;SDS011;52631;42.208;24.656;2023-09-19T05:40:17;13.93;;;6.50;;
65855;SDS011;52631;42.208;24.656;2023-09-19T05:42:43;12.00;;;6.55;;
65855;SDS011;52631;42.208;24.656;2023-09-19T05:45:09;14.38;;;7.80;;
65855;SDS011;52631;42.208;24.656;2023-09-19T05:47:41;10.23;;;7.03;;
65855;SDS011;52631;42.208;24.656;2023-09-19T05:50:08;12.65;;;8.00;;
65855;SDS011;52631;42.208;24.656;2023-09-19T05:52:37;15.20;;;7.90;;
65855;SDS011;52631;42.208;24.656;2023-09-19T05:55:06;12.95;;;7.68;;
65855;SDS011;52631;42.208;24.656;2023-09-19T05:57:35;11.82;;;7.85;;
65855;SDS011;52631;42.208;24.656;2023-09-19T06:00:04;11.75;;;7.70;;
65855;SDS011;52631;42.208;24.656;2023-09-19T06:02:35;13.15;;;7.85;;
65855;SDS011;52631;42.208;24.656;2023-09-19T06:05:01;12.45;;;7.45;;
65855;SDS011;52631;42.208;24.656;2023-09-19T06:07:27;13.13;;;7.68;;
65855;SDS011;52631;42.208;24.656;2023-09-19T06:10:01;10.82;;;6.97;;
65855;SDS011;52631;42.208;24.656;2023-09-19T06:12:28;13.07;;;7.82;;
65855;SDS011;52631;42.208;24.656;2023-09-19T06:14:55;13.82;;;7.60;;
65855;SDS011;52631;42.208;24.656;2023-09-19T06:17:20;12.00;;;7.70;;
65855;SDS011;52631;42.208;24.656;2023-09-19T06:19:47;12.82;;;7.90;;
65855;SDS011;52631;42.208;24.656;2023-09-19T06:22:15;16.05;;;7.35;;
65855;SDS011;52631;42.208;24.656;2023-09-19T06:24:43;13.25;;;8.13;;
65855;SDS011;52631;42.208;24.656;2023-09-19T06:27:13;15.55;;;8.43;;
65855;SDS011;52631;42.208;24.656;2023-09-19T06:29:38;13.27;;;7.60;;
65855;SDS011;52631;42.208;24.656;2023-09-19T06:32:07;12.55;;;7.43;;
65855;SDS011;52631;42.208;24.656;2023-09-19T06:34:36;13.65;;;7.75;;
65855;SDS011;52631;42.208;24.656;2023-09-19T06:37:03;11.75;;;7.45;;
65855;SDS011;52631;42.208;24.656;2023-09-19T06:39:31;14.00;;;8.15;;
65855;SDS011;52631;42.208;24.656;2023-09-19T06:41:56;12.75;;;7.32;;
65855;SDS011;52631;42.208;24.656;2023-09-19T06:44:22;9.55;;;6.88;;
65855;SDS011;52631;42.208;24.656;2023-09-19T06:46:49;11.80;;;6.45;;
65855;SDS011;52631;42.208;24.656;2023-09-19T06:49:16;14.23;;;7.57;;
65855;SDS011;52631;42.208;24.656;2023-09-19T06:51:42;10.82;;;6.82;;
65855;SDS011;52631;42.208;24.656;2023-09-19T06:54:08;11.25;;;7.38;;
65855;SDS011;52631;42.208;24.656;2023-09-19T06:56:34;9.15;;;5.60;;
65855;SDS011;52631;42.208;24.656;2023-09-19T06:59:00;11.38;;;5.40;;
65855;SDS011;52631;42.208;24.656;2023-09-19T07:01:27;7.68;;;5.40;;
65855;SDS011;52631;42.208;24.656;2023-09-19T07:03:52;10.80;;;5.13;;
65855;SDS011;52631;42.208;24.656;2023-09-19T07:06:18;9.38;;;5.78;;
65855;SDS011;52631;42.208;24.656;2023-09-19T07:08:43;9.13;;;5.78;;
65855;SDS011;52631;42.208;24.656;2023-09-19T07:11:10;9.73;;;5.65;;
65855;SDS011;52631;42.208;24.656;2023-09-19T07:13:38;7.40;;;4.85;;
65855;SDS011;52631;42.208;24.656;2023-09-19T07:16:04;7.93;;;5.38;;
65855;SDS011;52631;42.208;24.656;2023-09-19T07:18:29;8.40;;;5.20;;
65855;SDS011;52631;42.208;24.656;2023-09-19T07:20:56;7.10;;;4.80;;
65855;SDS011;52631;42.208;24.656;2023-09-19T07:23:26;10.20;;;4.63;;
65855;SDS011;52631;42.208;24.656;2023-09-19T07:25:51;8.63;;;4.63;;
65855;SDS011;52631;42.208;24.656;2023-09-19T07:28:17;8.55;;;4.68;;
65855;SDS011;52631;42.208;24.656;2023-09-19T07:30:43;7.57;;;5.07;;
65855;SDS011;52631;42.208;24.656;2023-09-19T07:33:09;8.93;;;5.05;;
65855;SDS011;52631;42.208;24.656;2023-09-19T07:35:38;7.75;;;3.92;;
65855;SDS011;52631;42.208;24.656;2023-09-19T07:38:07;8.95;;;4.72;;
65855;SDS011;52631;42.208;24.656;2023-09-19T07:40:32;9.70;;;4.82;;
65855;SDS011;52631;42.208;24.656;2023-09-19T07:42:58;7.22;;;4.43;;
65855;SDS011;52631;42.208;24.656;2023-09-19T07:45:27;8.27;;;4.43;;
65855;SDS011;52631;42.208;24.656;2023-09-19T07:47:55;7.72;;;4.63;;
65855;SDS011;52631;42.208;24.656;2023-09-19T07:50:20;9.20;;;4.80;;
65855;SDS011;52631;42.208;24.656;2023-09-19T07:52:46;8.85;;;4.47;;
65855;SDS011;52631;42.208;24.656;2023-09-19T07:55:12;6.95;;;4.60;;
65855;SDS011;52631;42.208;24.656;2023-09-19T07:57:45;8.97;;;4.57;;
65855;SDS011;52631;42.208;24.656;2023-09-19T08:00:11;8.10;;;4.63;;
65855;SDS011;52631;42.208;24.656;2023-09-19T08:02:38;5.85;;;4.50;;
65855;SDS011;52631;42.208;24.656;2023-09-19T08:05:04;7.55;;;4.50;;
65855;SDS011;52631;42.208;24.656;2023-09-19T08:07:40;6.80;;;4.50;;
65855;SDS011;52631;42.208;24.656;2023-09-19T08:10:06;9.88;;;4.50;;
65855;SDS011;52631;42.208;24.656;2023-09-19T08:12:33;8.52;;;3.97;;
65855;SDS011;52631;42.208;24.656;2023-09-19T08:15:04;6.22;;;3.65;;
65855;SDS011;52631;42.208;24.656;2023-09-19T08:17:34;6.13;;;4.18;;
65855;SDS011;52631;42.208;24.656;2023-09-19T08:19:59;6.40;;;3.83;;
65855;SDS011;52631;42.208;24.656;2023-09-19T08:22:26;9.40;;;4.05;;
65855;SDS011;52631;42.208;24.656;2023-09-19T08:24:52;7.00;;;3.80;;
65855;SDS011;52631;42.208;24.656;2023-09-19T08:27:18;6.82;;;3.60;;
65855;SDS011;52631;42.208;24.656;2023-09-19T08:29:44;4.80;;;3.55;;
65855;SDS011;52631;42.208;24.656;2023-09-19T08:32:10;5.38;;;3.70;;
65855;SDS011;52631;42.208;24.656;2023-09-19T08:34:35;7.18;;;3.92;;
65855;SDS011;52631;42.208;24.656;2023-09-19T08:37:03;7.78;;;3.92;;
65855;SDS011;52631;42.208;24.656;2023-09-19T08:39:29;7.93;;;3.60;;
65855;SDS011;52631;42.208;24.656;2023-09-19T08:41:59;7.63;;;3.67;;
65855;SDS011;52631;42.208;24.656;2023-09-19T08:44:25;8.32;;;3.55;;
65855;SDS011;52631;42.208;24.656;2023-09-19T08:46:59;6.63;;;3.97;;
65855;SDS011;52631;42.208;24.656;2023-09-19T08:49:40;7.43;;;4.22;;
65855;SDS011;52631;42.208;24.656;2023-09-19T08:52:16;6.68;;;3.90;;
65855;SDS011;52631;42.208;24.656;2023-09-19T08:54:46;5.38;;;3.40;;
65855;SDS011;52631;42.208;24.656;2023-09-19T08:57:13;7.38;;;3.42;;
65855;SDS011;52631;42.208;24.656;2023-09-19T08:59:46;9.13;;;3.63;;
65855;SDS011;52631;42.208;24.656;2023-09-19T09:02:13;7.47;;;3.83;;
65855;SDS011;52631;42.208;24.656;2023-09-19T09:04:43;9.23;;;3.88;;
65855;SDS011;52631;42.208;24.656;2023-09-19T09:07:10;5.87;;;4.10;;
65855;SDS011;52631;42.208;24.656;2023-09-19T09:09:39;7.72;;;3.85;;
65855;SDS011;52631;42.208;24.656;2023-09-19T09:12:14;7.13;;;3.90;;
65855;SDS011;52631;42.208;24.656;2023-09-19T09:14:42;7.95;;;3.67;;
65855;SDS011;52631;42.208;24.656;2023-09-19T09:17:10;6.20;;;3.35;;
65855;SDS011;52631;42.208;24.656;2023-09-19T09:19:37;7.35;;;3.70;;
65855;SDS011;52631;42.208;24.656;2023-09-19T09:22:09;5.05;;;3.40;;
65855;SDS011;52631;42.208;24.656;2023-09-19T09:24:35;5.68;;;3.63;;
65855;SDS011;52631;42.208;24.656;2023-09-19T09:27:04;5.75;;;3.55;;
65855;SDS011;52631;42.208;24.656;2023-09-19T09:29:42;5.75;;;3.50;;
65855;SDS011;52631;42.208;24.656;2023-09-19T09:32:18;7.13;;;3.75;;
65855;SDS011;52631;42.208;24.656;2023-09-19T09:34:54;7.47;;;3.90;;
65855;SDS011;52631;42.208;24.656;2023-09-19T09:37:21;7.22;;;3.30;;
65855;SDS011;52631;42.208;24.656;2023-09-19T09:39:54;8.68;;;3.33;;
65855;SDS011;52631;42.208;24.656;2023-09-19T09:42:35;7.45;;;3.60;;
65855;SDS011;52631;42.208;24.656;2023-09-19T09:45:13;6.18;;;3.13;;
65855;SDS011;52631;42.208;24.656;2023-09-19T09:47:46;7.63;;;3.58;;
65855;SDS011;52631;42.208;24.656;2023-09-19T09:50:23;5.80;;;3.10;;
65855;SDS011;52631;42.208;24.656;2023-09-19T09:52:54;5.82;;;3.40;;
65855;SDS011;52631;42.208;24.656;2023-09-19T09:55:27;6.72;;;3.75;;
65855;SDS011;52631;42.208;24.656;2023-09-19T09:58:27;6.85;;;3.55;;
65855;SDS011;52631;42.208;24.656;2023-09-19T10:00:55;6.72;;;3.92;;
65855;SDS011;52631;42.208;24.656;2023-09-19T10:03:33;7.15;;;3.83;;
65855;SDS011;52631;42.208;24.656;2023-09-19T10:08:36;6.82;;;3.80;;
65855;SDS011;52631;42.208;24.656;2023-09-19T10:11:09;5.50;;;3.60;;
65855;SDS011;52631;42.208;24.656;2023-09-19T10:13:40;5.80;;;3.60;;
65855;SDS011;52631;42.208;24.656;2023-09-19T10:16:07;7.30;;;3.65;;
65855;SDS011;52631;42.208;24.656;2023-09-19T10:18:35;7.53;;;3.55;;
65855;SDS011;52631;42.208;24.656;2023-09-19T10:21:03;6.47;;;3.88;;
65855;SDS011;52631;42.208;24.656;2023-09-19T10:23:30;5.95;;;4.00;;
65855;SDS011;52631;42.208;24.656;2023-09-19T10:25:59;6.85;;;3.97;;
65855;SDS011;52631;42.208;24.656;2023-09-19T10:28:27;8.85;;;3.90;;
65855;SDS011;52631;42.208;24.656;2023-09-19T10:30:54;6.93;;;3.97;;
65855;SDS011;52631;42.208;24.656;2023-09-19T10:33:24;7.03;;;3.60;;
65855;SDS011;52631;42.208;24.656;2023-09-19T10:35:55;4.85;;;3.30;;
65855;SDS011;52631;42.208;24.656;2023-09-19T10:38:25;5.68;;;3.75;;
65855;SDS011;52631;42.208;24.656;2023-09-19T10:40:52;7.93;;;4.05;;
65855;SDS011;52631;42.208;24.656;2023-09-19T10:43:19;6.00;;;3.70;;
65855;SDS011;52631;42.208;24.656;2023-09-19T10:45:46;7.50;;;3.78;;
65855;SDS011;52631;42.208;24.656;2023-09-19T10:48:14;7.38;;;3.30;;
65855;SDS011;52631;42.208;24.656;2023-09-19T10:53:29;6.38;;;3.80;;
65855;SDS011;52631;42.208;24.656;2023-09-19T10:56:26;6.07;;;3.67;;
65855;SDS011;52631;42.208;24.656;2023-09-19T10:59:38;7.25;;;4.13;;
65855;SDS011;52631;42.208;24.656;2023-09-19T11:01:50;7.97;;;3.53;;
65855;SDS011;52631;42.208;24.656;2023-09-19T11:09:47;5.75;;;3.25;;
65855;SDS011;52631;42.208;24.656;2023-09-19T11:14:56;6.32;;;3.83;;
65855;SDS011;52631;42.208;24.656;2023-09-19T11:17:38;10.60;;;4.20;;
65855;SDS011;52631;42.208;24.656;2023-09-19T11:30:46;6.05;;;3.50;;
65855;SDS011;52631;42.208;24.656;2023-09-19T11:43:51;5.22;;;3.10;;
65855;SDS011;52631;42.208;24.656;2023-09-19T11:46:28;6.50;;;3.63;;
65855;SDS011;52631;42.208;24.656;2023-09-19T11:48:55;5.93;;;3.40;;
65855;SDS011;52631;42.208;24.656;2023-09-19T11:51:39;6.68;;;3.42;;
65855;SDS011;52631;42.208;24.656;2023-09-19T11:54:10;7.53;;;3.85;;
65855;SDS011;52631;42.208;24.656;2023-09-19T11:56:38;7.63;;;3.70;;
65855;SDS011;52631;42.208;24.656;2023-09-19T11:59:06;6.93;;;3.22;;
65855;SDS011;52631;42.208;24.656;2023-09-19T12:01:33;8.63;;;3.60;;
65855;SDS011;52631;42.208;24.656;2023-09-19T12:04:00;7.82;;;4.15;;
65855;SDS011;52631;42.208;24.656;2023-09-19T12:06:28;6.55;;;3.65;;
65855;SDS011;52631;42.208;24.656;2023-09-19T12:09:00;7.22;;;3.47;;
65855;SDS011;52631;42.208;24.656;2023-09-19T12:11:29;6.25;;;3.75;;
65855;SDS011;52631;42.208;24.656;2023-09-19T12:13:58;6.68;;;3.88;;
65855;SDS011;52631;42.208;24.656;2023-09-19T12:16:25;9.27;;;3.75;;
65855;SDS011;52631;42.208;24.656;2023-09-19T12:18:55;5.37;;;3.37;;
65855;SDS011;52631;42.208;24.656;2023-09-19T12:21:31;6.85;;;3.40;;
65855;SDS011;52631;42.208;24.656;2023-09-19T12:26:30;8.68;;;3.80;;
65855;SDS011;52631;42.208;24.656;2023-09-19T12:29:02;7.38;;;3.30;;
65855;SDS011;52631;42.208;24.656;2023-09-19T12:31:30;4.95;;;3.20;;
65855;SDS011;52631;42.208;24.656;2023-09-19T12:34:01;4.93;;;3.10;;
65855;SDS011;52631;42.208;24.656;2023-09-19T12:36:26;8.32;;;3.28;;
65855;SDS011;52631;42.208;24.656;2023-09-19T12:38:56;6.95;;;3.58;;
65855;SDS011;52631;42.208;24.656;2023-09-19T12:41:24;5.63;;;3.33;;
65855;SDS011;52631;42.208;24.656;2023-09-19T12:43:51;6.82;;;3.50;;
65855;SDS011;52631;42.208;24.656;2023-09-19T12:46:19;7.53;;;3.08;;
65855;SDS011;52631;42.208;24.656;2023-09-19T12:48:51;6.03;;;3.42;;
65855;SDS011;52631;42.208;24.656;2023-09-19T12:51:47;6.32;;;3.30;;
65855;SDS011;52631;42.208;24.656;2023-09-19T12:54:13;5.90;;;3.40;;
65855;SDS011;52631;42.208;24.656;2023-09-19T12:56:44;13.73;;;3.70;;
65855;SDS011;52631;42.208;24.656;2023-09-19T12:59:12;5.65;;;3.38;;
65855;SDS011;52631;42.208;24.656;2023-09-19T13:01:39;8.75;;;3.75;;
65855;SDS011;52631;42.208;24.656;2023-09-19T13:06:44;8.23;;;3.55;;
65855;SDS011;52631;42.208;24.656;2023-09-19T13:09:17;9.55;;;5.57;;
65855;SDS011;52631;42.208;24.656;2023-09-19T13:11:45;5.80;;;3.30;;
65855;SDS011;52631;42.208;24.656;2023-09-19T13:14:23;5.57;;;3.47;;
65855;SDS011;52631;42.208;24.656;2023-09-19T13:19:47;6.50;;;3.65;;
65855;SDS011;52631;42.208;24.656;2023-09-19T13:25:03;7.93;;;3.28;;
65855;SDS011;52631;42.208;24.656;2023-09-19T13:27:29;5.32;;;2.88;;
65855;SDS011;52631;42.208;24.656;2023-09-19T13:29:55;6.80;;;3.50;;
65855;SDS011;52631;42.208;24.656;2023-09-19T13:32:20;6.22;;;3.65;;
65855;SDS011;52631;42.208;24.656;2023-09-19T13:34:45;7.00;;;3.70;;
65855;SDS011;52631;42.208;24.656;2023-09-19T13:37:11;6.78;;;3.50;;
65855;SDS011;52631;42.208;24.656;2023-09-19T13:39:38;5.68;;;3.25;;
65855;SDS011;52631;42.208;24.656;2023-09-19T13:42:07;6.55;;;3.72;;
65855;SDS011;52631;42.208;24.656;2023-09-19T13:44:37;7.97;;;3.55;;
65855;SDS011;52631;42.208;24.656;2023-09-19T13:47:03;8.07;;;3.40;;
65855;SDS011;52631;42.208;24.656;2023-09-19T13:49:34;7.40;;;3.20;;
65855;SDS011;52631;42.208;24.656;2023-09-19T13:52:00;6.47;;;3.50;;
65855;SDS011;52631;42.208;24.656;2023-09-19T13:54:28;4.78;;;3.13;;
65855;SDS011;52631;42.208;24.656;2023-09-19T13:56:53;7.63;;;3.97;;
65855;SDS011;52631;42.208;24.656;2023-09-19T13:59:19;10.68;;;3.75;;
65855;SDS011;52631;42.208;24.656;2023-09-19T14:01:48;5.35;;;3.88;;
65855;SDS011;52631;42.208;24.656;2023-09-19T14:04:14;6.82;;;3.38;;
65855;SDS011;52631;42.208;24.656;2023-09-19T14:06:41;9.63;;;3.78;;
65855;SDS011;52631;42.208;24.656;2023-09-19T14:09:07;5.07;;;3.30;;
65855;SDS011;52631;42.208;24.656;2023-09-19T14:11:33;5.97;;;3.42;;
65855;SDS011;52631;42.208;24.656;2023-09-19T14:13:59;5.80;;;3.40;;
65855;SDS011;52631;42.208;24.656;2023-09-19T14:16:24;6.07;;;3.42;;
65855;SDS011;52631;42.208;24.656;2023-09-19T14:18:49;7.25;;;3.60;;
65855;SDS011;52631;42.208;24.656;2023-09-19T14:21:15;5.75;;;2.92;;
65855;SDS011;52631;42.208;24.656;2023-09-19T14:23:40;7.00;;;3.20;;
65855;SDS011;52631;42.208;24.656;2023-09-19T14:26:09;4.28;;;2.63;;
65855;SDS011;52631;42.208;24.656;2023-09-19T14:28:35;8.48;;;3.42;;
65855;SDS011;52631;42.208;24.656;2023-09-19T14:31:04;5.07;;;3.35;;
65855;SDS011;52631;42.208;24.656;2023-09-19T14:33:34;6.10;;;3.45;;
65855;SDS011;52631;42.208;24.656;2023-09-19T14:36:03;6.43;;;3.38;;
65855;SDS011;52631;42.208;24.656;2023-09-19T14:38:31;5.68;;;2.90;;
65855;SDS011;52631;42.208;24.656;2023-09-19T14:41:02;5.55;;;3.35;;
65855;SDS011;52631;42.208;24.656;2023-09-19T14:43:28;5.47;;;3.05;;
65855;SDS011;52631;42.208;24.656;2023-09-19T14:45:57;5.70;;;3.03;;
65855;SDS011;52631;42.208;24.656;2023-09-19T14:48:35;6.10;;;3.33;;
65855;SDS011;52631;42.208;24.656;2023-09-19T14:51:03;6.22;;;3.40;;
65855;SDS011;52631;42.208;24.656;2023-09-19T14:53:30;7.88;;;3.20;;
65855;SDS011;52631;42.208;24.656;2023-09-19T14:55:56;4.57;;;2.90;;
65855;SDS011;52631;42.208;24.656;2023-09-19T14:58:21;9.45;;;3.30;;
65855;SDS011;52631;42.208;24.656;2023-09-19T15:00:47;5.57;;;3.20;;
65855;SDS011;52631;42.208;24.656;2023-09-19T15:03:12;5.50;;;3.03;;
65855;SDS011;52631;42.208;24.656;2023-09-19T15:05:41;9.13;;;3.40;;
65855;SDS011;52631;42.208;24.656;2023-09-19T15:08:06;8.82;;;3.45;;
65855;SDS011;52631;42.208;24.656;2023-09-19T15:10:32;7.25;;;3.42;;
65855;SDS011;52631;42.208;24.656;2023-09-19T15:12:57;5.30;;;3.13;;
65855;SDS011;52631;42.208;24.656;2023-09-19T15:15:23;5.55;;;3.58;;
65855;SDS011;52631;42.208;24.656;2023-09-19T15:17:48;6.95;;;3.47;;
65855;SDS011;52631;42.208;24.656;2023-09-19T15:20:13;6.75;;;3.65;;
65855;SDS011;52631;42.208;24.656;2023-09-19T15:22:39;9.45;;;3.38;;
65855;SDS011;52631;42.208;24.656;2023-09-19T15:25:05;5.93;;;3.05;;
65855;SDS011;52631;42.208;24.656;2023-09-19T15:27:30;6.93;;;3.20;;
65855;SDS011;52631;42.208;24.656;2023-09-19T15:29:57;8.45;;;3.17;;
65855;SDS011;52631;42.208;24.656;2023-09-19T15:32:24;7.85;;;3.20;;
65855;SDS011;52631;42.208;24.656;2023-09-19T15:34:50;5.68;;;3.30;;
65855;SDS011;52631;42.208;24.656;2023-09-19T15:37:15;7.53;;;3.40;;